Time;durP1;ratioP1;P1;durP2;ratioP2;P2;SDS_P1;SDS_P2;PMS_P1;PMS_P2;Temp;Humidity;BMP_temperature;BMP_pressure;BME280_temperature;BME280_humidity;BME280_pressure;Samples;Min_cycle;Max_cycle;Signal;HPM_P1;HPM_P2
2022/11/27 00:02:04;;;;;;;122.77;57.23;;;;;;;;;;5010945;28;20250;-75
2022/11/27 00:04:30;;;;;;;126.03;57.13;;;;;;;;;;5003947;28;20299;-75
2022/11/27 00:06:56;;;;;;;127.40;56.23;;;;;;;;;;5001505;28;20243;-76
2022/11/27 00:09:22;;;;;;;113.17;52.93;;;;;;;;;;5010399;28;20183;-76
2022/11/27 00:11:48;;;;;;;108.03;52.70;;;;;;;;;;4993319;28;20699;-76
2022/11/27 00:14:15;;;;;;;115.47;53.77;;;;;;;;;;4991311;28;20179;-75
2022/11/27 00:16:42;;;;;;;119.53;55.77;;;;;;;;;;5010132;28;20194;-75
2022/11/27 00:19:09;;;;;;;111.40;54.57;;;;;;;;;;4997265;28;20281;-75
2022/11/27 00:21:35;;;;;;;114.87;53.03;;;;;;;;;;5009082;28;20191;-75
2022/11/27 00:24:02;;;;;;;116.37;54.70;;;;;;;;;;4993052;28;20223;-75
2022/11/27 00:26:29;;;;;;;120.97;53.53;;;;;;;;;;4993611;28;20211;-75
2022/11/27 00:28:55;;;;;;;121.07;53.37;;;;;;;;;;5010312;28;20223;-76
2022/11/27 00:31:27;;;;;;;112.67;52.77;;;;;;;;;;5009022;28;20277;-75
2022/11/27 00:33:54;;;;;;;106.63;50.70;;;;;;;;;;5008707;28;20183;-75
2022/11/27 00:36:20;;;;;;;106.43;50.47;;;;;;;;;;4996200;28;20723;-76
2022/11/27 00:38:46;;;;;;;106.70;53.07;;;;;;;;;;4992824;28;20274;-75
2022/11/27 00:41:20;;;;;;;107.60;51.43;;;;;;;;;;5011049;28;20175;-75
2022/11/27 00:43:46;;;;;;;103.97;49.10;;;;;;;;;;5010398;28;20187;-75
2022/11/27 00:46:13;;;;;;;103.10;51.77;;;;;;;;;;5004673;28;20207;-76
2022/11/27 00:48:39;;;;;;;108.73;52.27;;;;;;;;;;4975651;28;20234;-75
2022/11/27 00:51:07;;;;;;;105.50;52.90;;;;;;;;;;4976423;28;20644;-75
2022/11/27 00:53:33;;;;;;;102.00;50.97;;;;;;;;;;5011210;28;20211;-76
2022/11/27 00:55:59;;;;;;;101.63;52.37;;;;;;;;;;4999014;28;20183;-75
2022/11/27 00:58:26;;;;;;;91.67;49.73;;;;;;;;;;4978921;28;20275;-75
2022/11/27 01:00:59;;;;;;;105.03;53.20;;;;;;;;;;4998758;28;20614;-75
2022/11/27 01:03:25;;;;;;;92.67;49.60;;;;;;;;;;4976586;28;20221;-76
2022/11/27 01:05:51;;;;;;;100.30;52.33;;;;;;;;;;5010188;28;20207;-75
2022/11/27 01:08:21;;;;;;;99.53;52.33;;;;;;;;;;4991216;28;20176;-75
2022/11/27 01:10:53;;;;;;;108.17;53.77;;;;;;;;;;4991101;28;20183;-76
2022/11/27 01:13:22;;;;;;;102.23;52.67;;;;;;;;;;5004126;28;20192;-75
2022/11/27 01:15:57;;;;;;;111.43;51.03;;;;;;;;;;4999373;28;20255;-76
2022/11/27 01:18:23;;;;;;;99.63;50.63;;;;;;;;;;5019411;28;20612;-75
2022/11/27 01:20:51;;;;;;;106.30;53.33;;;;;;;;;;4992806;28;20183;-75
2022/11/27 01:23:17;;;;;;;111.00;54.83;;;;;;;;;;5009778;28;20226;-77
2022/11/27 01:25:43;;;;;;;105.27;53.37;;;;;;;;;;5008650;28;20279;-76
2022/11/27 01:28:09;;;;;;;96.77;53.10;;;;;;;;;;5009423;28;20274;-75
2022/11/27 01:30:38;;;;;;;106.67;51.77;;;;;;;;;;5013836;28;20695;-75
2022/11/27 01:33:04;;;;;;;118.43;56.93;;;;;;;;;;5011742;28;20199;-76
2022/11/27 01:35:30;;;;;;;105.77;53.30;;;;;;;;;;5012474;28;20183;-76
2022/11/27 01:37:56;;;;;;;116.53;55.13;;;;;;;;;;5002402;28;20195;-75
2022/11/27 01:40:22;;;;;;;94.20;51.13;;;;;;;;;;5000920;28;20656;-75
2022/11/27 01:42:48;;;;;;;97.43;52.30;;;;;;;;;;5000689;28;20194;-76
2022/11/27 01:45:15;;;;;;;108.57;53.50;;;;;;;;;;4997927;28;20187;-76
2022/11/27 01:47:50;;;;;;;108.97;55.23;;;;;;;;;;5009997;28;20566;-75
2022/11/27 01:50:18;;;;;;;107.20;53.40;;;;;;;;;;5013428;28;20183;-77
2022/11/27 01:52:47;;;;;;;102.47;54.63;;;;;;;;;;5012914;28;20183;-75
2022/11/27 01:55:20;;;;;;;104.33;55.07;;;;;;;;;;5008115;28;20279;-75
2022/11/27 01:57:49;;;;;;;112.77;55.80;;;;;;;;;;5002284;28;20199;-76
2022/11/27 02:00:16;;;;;;;106.37;53.30;;;;;;;;;;4997132;28;20258;-76
2022/11/27 02:02:43;;;;;;;104.30;54.43;;;;;;;;;;4997680;28;20184;-75
2022/11/27 02:05:10;;;;;;;105.60;53.60;;;;;;;;;;5001784;28;20191;-75
2022/11/27 02:07:36;;;;;;;111.67;56.10;;;;;;;;;;4987742;28;20212;-75
2022/11/27 02:10:02;;;;;;;115.03;54.77;;;;;;;;;;5000323;28;20252;-75
2022/11/27 02:12:47;;;;;;;106.77;54.80;;;;;;;;;;5011225;28;20182;-76
2022/11/27 02:15:23;;;;;;;112.40;54.07;;;;;;;;;;5011214;28;20181;-75
2022/11/27 02:17:49;;;;;;;112.47;56.27;;;;;;;;;;5003497;28;20531;-76
2022/11/27 02:20:18;;;;;;;103.87;52.10;;;;;;;;;;4985595;28;20230;-75
2022/11/27 02:23:03;;;;;;;107.73;53.13;;;;;;;;;;5004727;28;20233;-75
2022/11/27 02:25:34;;;;;;;112.47;55.67;;;;;;;;;;4998941;28;20190;-75
2022/11/27 02:28:03;;;;;;;120.43;55.23;;;;;;;;;;5000777;28;20580;-75
2022/11/27 02:30:33;;;;;;;111.53;57.00;;;;;;;;;;4996730;28;20220;-75
2022/11/27 02:33:00;;;;;;;111.90;54.53;;;;;;;;;;4996093;28;20164;-75
2022/11/27 02:35:29;;;;;;;118.53;56.00;;;;;;;;;;5012990;28;21461;-74
2022/11/27 02:37:58;;;;;;;96.70;51.70;;;;;;;;;;5002348;28;20243;-75
2022/11/27 02:40:30;;;;;;;117.50;56.60;;;;;;;;;;5002781;28;20640;-75
2022/11/27 02:43:08;;;;;;;109.83;53.87;;;;;;;;;;5011736;28;20190;-75
2022/11/27 02:45:37;;;;;;;114.17;55.70;;;;;;;;;;5010465;28;20187;-76
2022/11/27 02:48:03;;;;;;;114.83;55.40;;;;;;;;;;4995882;28;20187;-75
2022/11/27 02:50:31;;;;;;;114.97;56.13;;;;;;;;;;5011545;28;20182;-75
2022/11/27 02:53:00;;;;;;;116.53;55.53;;;;;;;;;;5012126;28;20190;-76
2022/11/27 02:55:29;;;;;;;123.80;58.50;;;;;;;;;;4987080;28;20579;-75
2022/11/27 02:57:57;;;;;;;110.97;55.90;;;;;;;;;;5010560;28;20648;-75
2022/11/27 03:00:23;;;;;;;110.97;55.00;;;;;;;;;;5010393;28;20277;-76
2022/11/27 03:02:51;;;;;;;113.57;55.27;;;;;;;;;;4995815;28;20176;-75
2022/11/27 03:05:20;;;;;;;124.80;57.03;;;;;;;;;;4991748;28;20178;-75
2022/11/27 03:07:52;;;;;;;116.33;53.57;;;;;;;;;;4984234;28;20223;-75
2022/11/27 03:10:21;;;;;;;104.47;52.47;;;;;;;;;;5002049;28;20309;-75
2022/11/27 03:12:48;;;;;;;108.47;52.50;;;;;;;;;;5011292;28;20186;-74
2022/11/27 03:15:14;;;;;;;119.63;54.73;;;;;;;;;;5010205;28;20198;-75
2022/11/27 03:17:47;;;;;;;121.37;55.70;;;;;;;;;;5010720;28;20195;-75
2022/11/27 03:20:16;;;;;;;113.60;54.03;;;;;;;;;;4989854;28;20283;-76
2022/11/27 03:22:42;;;;;;;113.53;53.60;;;;;;;;;;5001124;28;20234;-75
2022/11/27 03:25:08;;;;;;;121.90;54.77;;;;;;;;;;4989453;28;20244;-74
2022/11/27 03:27:38;;;;;;;121.67;55.67;;;;;;;;;;4990831;28;20226;-74
2022/11/27 03:30:05;;;;;;;120.30;55.30;;;;;;;;;;5009953;28;20693;-75
2022/11/27 03:32:33;;;;;;;111.60;53.97;;;;;;;;;;5011069;28;20207;-75
2022/11/27 03:34:59;;;;;;;122.17;56.20;;;;;;;;;;4982279;28;20228;-75
2022/11/27 03:37:26;;;;;;;110.10;54.27;;;;;;;;;;5002479;28;20183;-76
2022/11/27 03:39:52;;;;;;;118.50;52.80;;;;;;;;;;5010170;28;20183;-75
2022/11/27 03:42:18;;;;;;;119.20;54.53;;;;;;;;;;4995211;28;20191;-75
2022/11/27 03:45:03;;;;;;;111.53;54.43;;;;;;;;;;4996299;28;20187;-75
2022/11/27 03:47:48;;;;;;;116.10;56.03;;;;;;;;;;4993564;28;20213;-75
2022/11/27 03:50:29;;;;;;;118.83;56.40;;;;;;;;;;5009422;28;20199;-74
2022/11/27 03:52:58;;;;;;;116.97;55.67;;;;;;;;;;5010189;28;20215;-75
2022/11/27 03:55:49;;;;;;;117.73;54.37;;;;;;;;;;5010422;28;20615;-75
2022/11/27 03:58:35;;;;;;;117.70;56.03;;;;;;;;;;5011223;28;20190;-75
2022/11/27 04:01:03;;;;;;;112.40;54.37;;;;;;;;;;4991729;28;20187;-75
2022/11/27 04:03:29;;;;;;;115.40;53.87;;;;;;;;;;5003524;28;20215;-75
2022/11/27 04:05:55;;;;;;;113.73;54.40;;;;;;;;;;4995075;28;20211;-76
2022/11/27 04:08:22;;;;;;;114.00;53.97;;;;;;;;;;4998259;28;20195;-75
2022/11/27 04:10:48;;;;;;;110.67;53.80;;;;;;;;;;4999549;28;20192;-75
2022/11/27 04:13:14;;;;;;;111.83;54.13;;;;;;;;;;4999876;28;20668;-75
2022/11/27 04:15:40;;;;;;;114.03;53.93;;;;;;;;;;5008866;28;20186;-75
2022/11/27 04:18:06;;;;;;;110.40;52.10;;;;;;;;;;5022609;28;20193;-75
2022/11/27 04:20:32;;;;;;;104.00;50.53;;;;;;;;;;5010050;28;20218;-75
2022/11/27 04:22:58;;;;;;;101.07;50.70;;;;;;;;;;5008604;28;20227;-75
2022/11/27 04:25:24;;;;;;;107.13;51.07;;;;;;;;;;5010288;28;20183;-75
2022/11/27 04:27:50;;;;;;;104.40;52.80;;;;;;;;;;5009272;28;20214;-75
2022/11/27 04:30:17;;;;;;;100.67;49.17;;;;;;;;;;4992857;28;20556;-75
2022/11/27 04:32:43;;;;;;;96.07;49.67;;;;;;;;;;4996774;28;20659;-76
2022/11/27 04:35:09;;;;;;;102.13;52.43;;;;;;;;;;4998117;28;20192;-76
2022/11/27 04:37:36;;;;;;;108.33;49.67;;;;;;;;;;4998917;28;20645;-76
2022/11/27 04:40:02;;;;;;;101.97;49.27;;;;;;;;;;5006350;28;20179;-75
2022/11/27 04:42:28;;;;;;;99.90;48.00;;;;;;;;;;5002461;28;20552;-75
2022/11/27 04:44:54;;;;;;;95.03;48.77;;;;;;;;;;5010098;28;20187;-75
2022/11/27 04:47:20;;;;;;;101.37;49.60;;;;;;;;;;5010656;28;20211;-76
2022/11/27 04:49:46;;;;;;;103.07;49.53;;;;;;;;;;5010494;28;20253;-75
2022/11/27 04:52:13;;;;;;;110.77;52.50;;;;;;;;;;5008544;28;20183;-76
2022/11/27 04:54:39;;;;;;;96.60;49.30;;;;;;;;;;4995993;28;20191;-76
2022/11/27 04:57:05;;;;;;;102.60;50.37;;;;;;;;;;5010371;28;20179;-75
2022/11/27 04:59:31;;;;;;;103.80;50.03;;;;;;;;;;4999162;28;20218;-75
2022/11/27 05:01:57;;;;;;;99.93;49.53;;;;;;;;;;5006844;28;20211;-75
2022/11/27 05:04:23;;;;;;;105.63;50.27;;;;;;;;;;4989553;28;20188;-75
2022/11/27 05:06:49;;;;;;;105.17;50.77;;;;;;;;;;5002956;28;20226;-75
2022/11/27 05:09:18;;;;;;;105.37;51.40;;;;;;;;;;4998245;28;20637;-76
2022/11/27 05:11:45;;;;;;;104.30;50.07;;;;;;;;;;4999194;28;20234;-75
2022/11/27 05:14:14;;;;;;;104.40;50.30;;;;;;;;;;5003036;28;20202;-76
2022/11/27 05:16:40;;;;;;;102.13;50.50;;;;;;;;;;5008329;28;20183;-76
2022/11/27 05:19:06;;;;;;;101.53;50.40;;;;;;;;;;5004254;28;20179;-76
2022/11/27 05:21:32;;;;;;;105.83;52.10;;;;;;;;;;4996986;28;20215;-76
2022/11/27 05:23:58;;;;;;;101.07;50.27;;;;;;;;;;4996432;28;20286;-76
2022/11/27 05:26:24;;;;;;;100.40;51.00;;;;;;;;;;4962962;28;20208;-76
2022/11/27 05:28:50;;;;;;;103.13;53.70;;;;;;;;;;4988903;28;20195;-77
2022/11/27 05:31:16;;;;;;;107.90;52.13;;;;;;;;;;4972446;28;20599;-76
2022/11/27 05:33:42;;;;;;;101.77;51.20;;;;;;;;;;4978419;28;20238;-77
2022/11/27 05:36:09;;;;;;;107.13;52.07;;;;;;;;;;4961130;28;20177;-77
2022/11/27 05:38:35;;;;;;;113.63;53.17;;;;;;;;;;4976102;28;20231;-77
2022/11/27 05:41:01;;;;;;;105.03;51.47;;;;;;;;;;4965915;28;20321;-76
2022/11/27 05:43:27;;;;;;;104.23;51.53;;;;;;;;;;4983722;28;20271;-76
2022/11/27 05:45:53;;;;;;;99.27;50.13;;;;;;;;;;4992562;28;20620;-76
2022/11/27 05:48:19;;;;;;;104.60;52.03;;;;;;;;;;4993940;28;20659;-77
2022/11/27 05:50:45;;;;;;;98.67;49.90;;;;;;;;;;4971969;28;20249;-76
2022/11/27 05:53:11;;;;;;;104.40;52.10;;;;;;;;;;4982339;28;20244;-77
2022/11/27 05:55:37;;;;;;;107.80;51.63;;;;;;;;;;4985818;28;20192;-76
2022/11/27 05:58:03;;;;;;;103.70;51.97;;;;;;;;;;4982448;28;20198;-76
2022/11/27 06:00:29;;;;;;;107.07;51.70;;;;;;;;;;4965027;28;20184;-76
2022/11/27 06:02:55;;;;;;;112.37;51.93;;;;;;;;;;4992579;28;20180;-76
2022/11/27 06:05:21;;;;;;;114.87;54.43;;;;;;;;;;4970975;28;20683;-77
2022/11/27 06:07:48;;;;;;;105.97;53.07;;;;;;;;;;4971360;28;20298;-75
2022/11/27 06:10:14;;;;;;;114.23;54.50;;;;;;;;;;4967258;28;20645;-76
2022/11/27 06:12:40;;;;;;;107.80;51.80;;;;;;;;;;4990314;28;20203;-76
2022/11/27 06:15:06;;;;;;;101.10;52.07;;;;;;;;;;4968936;28;20172;-76
2022/11/27 06:17:32;;;;;;;106.83;51.57;;;;;;;;;;4982080;28;20189;-75
2022/11/27 06:19:58;;;;;;;105.20;51.60;;;;;;;;;;4990717;28;20545;-76
2022/11/27 06:22:24;;;;;;;109.27;54.57;;;;;;;;;;4971281;28;20226;-76
2022/11/27 06:24:50;;;;;;;111.50;55.40;;;;;;;;;;4999150;28;20245;-75
2022/11/27 06:27:16;;;;;;;108.60;53.80;;;;;;;;;;5004051;28;20208;-76
2022/11/27 06:29:42;;;;;;;105.13;53.33;;;;;;;;;;4987536;28;20175;-75
2022/11/27 06:32:08;;;;;;;116.47;53.50;;;;;;;;;;5002661;28;20187;-76
2022/11/27 06:34:34;;;;;;;98.47;50.23;;;;;;;;;;5006360;28;20285;-75
2022/11/27 06:37:00;;;;;;;102.07;51.97;;;;;;;;;;5004878;28;20191;-75
2022/11/27 06:39:26;;;;;;;114.23;53.80;;;;;;;;;;4985985;28;20186;-76
2022/11/27 06:41:52;;;;;;;111.27;53.80;;;;;;;;;;4992071;28;20581;-75
2022/11/27 06:44:18;;;;;;;100.33;51.30;;;;;;;;;;4990161;28;20201;-76
2022/11/27 06:46:44;;;;;;;101.90;50.17;;;;;;;;;;4988043;28;20203;-76
2022/11/27 06:49:10;;;;;;;98.60;49.13;;;;;;;;;;5006286;28;20568;-75
2022/11/27 06:51:36;;;;;;;104.03;50.90;;;;;;;;;;4979483;28;20183;-75
2022/11/27 06:54:02;;;;;;;99.90;50.33;;;;;;;;;;4992852;28;20179;-76
2022/11/27 06:56:30;;;;;;;95.77;51.37;;;;;;;;;;5008234;28;20195;-76
2022/11/27 06:58:56;;;;;;;105.47;51.00;;;;;;;;;;4988652;28;20670;-75
2022/11/27 07:01:23;;;;;;;103.50;51.90;;;;;;;;;;5027955;28;20237;-76
2022/11/27 07:03:50;;;;;;;103.27;50.53;;;;;;;;;;5025227;28;20269;-77
2022/11/27 07:06:19;;;;;;;101.87;50.70;;;;;;;;;;5028997;28;20242;-76
2022/11/27 07:08:45;;;;;;;99.63;51.43;;;;;;;;;;5015985;28;20262;-75
2022/11/27 07:11:17;;;;;;;104.20;51.73;;;;;;;;;;5017458;28;20207;-76
2022/11/27 07:13:43;;;;;;;93.97;49.83;;;;;;;;;;5005163;28;20164;-76
2022/11/27 07:16:10;;;;;;;102.07;50.33;;;;;;;;;;5026902;28;20187;-77
2022/11/27 07:18:37;;;;;;;107.33;53.37;;;;;;;;;;5002257;28;20181;-76
2022/11/27 07:21:03;;;;;;;109.27;52.23;;;;;;;;;;5008406;28;20176;-76
2022/11/27 07:23:29;;;;;;;110.90;53.03;;;;;;;;;;5002471;28;20254;-76
2022/11/27 07:25:55;;;;;;;112.90;53.53;;;;;;;;;;5008455;28;20191;-75
2022/11/27 07:28:21;;;;;;;102.07;52.53;;;;;;;;;;5007018;28;20195;-76
2022/11/27 07:30:57;;;;;;;105.27;53.10;;;;;;;;;;4994248;28;20659;-75
2022/11/27 07:33:23;;;;;;;111.73;52.33;;;;;;;;;;4993383;28;20302;-75
2022/11/27 07:35:49;;;;;;;106.77;51.67;;;;;;;;;;4969719;28;20258;-75
2022/11/27 07:38:15;;;;;;;104.40;52.23;;;;;;;;;;4988946;28;20644;-76
2022/11/27 07:40:41;;;;;;;97.00;50.90;;;;;;;;;;4998053;28;20190;-75
2022/11/27 07:43:07;;;;;;;106.80;51.77;;;;;;;;;;4989234;28;20225;-75
2022/11/27 07:45:33;;;;;;;101.27;53.10;;;;;;;;;;5003685;28;20215;-75
2022/11/27 07:47:59;;;;;;;106.90;54.13;;;;;;;;;;4980045;28;20210;-75
2022/11/27 07:50:25;;;;;;;107.07;54.17;;;;;;;;;;4982210;28;20203;-75
2022/11/27 07:52:51;;;;;;;95.77;50.70;;;;;;;;;;4994286;28;20923;-76
2022/11/27 07:55:17;;;;;;;103.40;52.10;;;;;;;;;;4985844;28;20175;-75
2022/11/27 07:57:43;;;;;;;105.53;53.97;;;;;;;;;;5005292;28;20183;-75
2022/11/27 08:00:09;;;;;;;108.33;52.17;;;;;;;;;;4988220;28;20273;-75
2022/11/27 08:02:35;;;;;;;106.20;53.03;;;;;;;;;;4988225;28;20549;-75
2022/11/27 08:05:01;;;;;;;96.17;50.20;;;;;;;;;;4989036;28;20257;-75
2022/11/27 08:07:28;;;;;;;101.67;52.80;;;;;;;;;;4980972;28;20265;-76
2022/11/27 08:09:54;;;;;;;104.63;52.60;;;;;;;;;;4982365;28;20766;-75
2022/11/27 08:12:20;;;;;;;102.90;53.17;;;;;;;;;;4998891;28;20239;-75
2022/11/27 08:14:46;;;;;;;96.73;51.73;;;;;;;;;;5001324;28;20255;-77
2022/11/27 08:17:12;;;;;;;99.37;51.13;;;;;;;;;;5001571;28;20253;-75
2022/11/27 08:19:38;;;;;;;100.50;52.03;;;;;;;;;;4972418;28;20282;-75
2022/11/27 08:22:05;;;;;;;106.20;52.70;;;;;;;;;;4979224;28;20317;-75
2022/11/27 08:24:32;;;;;;;96.57;51.10;;;;;;;;;;4980010;28;20596;-75
2022/11/27 08:26:57;;;;;;;91.33;50.10;;;;;;;;;;5002690;28;20206;-75
2022/11/27 08:29:25;;;;;;;99.67;51.27;;;;;;;;;;4986967;28;20249;-76
2022/11/27 08:31:51;;;;;;;95.80;49.50;;;;;;;;;;4988802;28;20179;-76
2022/11/27 08:34:17;;;;;;;98.37;49.33;;;;;;;;;;4987320;28;20174;-76
2022/11/27 08:36:43;;;;;;;102.33;53.67;;;;;;;;;;4985327;28;20542;-76
2022/11/27 08:39:09;;;;;;;95.33;50.33;;;;;;;;;;5008847;28;20175;-75
2022/11/27 08:41:35;;;;;;;95.47;49.13;;;;;;;;;;4991170;28;20179;-76
2022/11/27 08:44:01;;;;;;;94.13;50.33;;;;;;;;;;4991918;28;20198;-76
2022/11/27 08:46:27;;;;;;;91.87;50.17;;;;;;;;;;4988987;28;20546;-76
2022/11/27 08:48:53;;;;;;;101.83;53.77;;;;;;;;;;5000327;28;20225;-76
2022/11/27 08:51:19;;;;;;;92.50;50.17;;;;;;;;;;4994104;28;20211;-76
2022/11/27 08:53:45;;;;;;;90.60;47.67;;;;;;;;;;4994053;28;20703;-76
2022/11/27 08:56:22;;;;;;;86.87;48.83;;;;;;;;;;5012059;28;20266;-76
2022/11/27 08:58:48;;;;;;;93.97;49.07;;;;;;;;;;4992807;28;20207;-76
2022/11/27 09:01:25;;;;;;;92.33;50.07;;;;;;;;;;5004440;28;20180;-76
2022/11/27 09:03:51;;;;;;;100.23;51.23;;;;;;;;;;5011021;28;20183;-76
2022/11/27 09:06:20;;;;;;;86.53;49.00;;;;;;;;;;4994303;28;20260;-76
2022/11/27 09:08:46;;;;;;;93.93;52.03;;;;;;;;;;4994588;28;20281;-77
2022/11/27 09:11:13;;;;;;;89.80;50.07;;;;;;;;;;4992354;28;20648;-76
2022/11/27 09:13:39;;;;;;;88.33;48.17;;;;;;;;;;4991629;28;20277;-76
2022/11/27 09:16:06;;;;;;;90.20;51.47;;;;;;;;;;4993390;28;20190;-77
2022/11/27 09:18:33;;;;;;;94.63;50.47;;;;;;;;;;5010393;28;20644;-74
2022/11/27 09:21:02;;;;;;;92.60;51.27;;;;;;;;;;5017974;28;20706;-76
2022/11/27 09:23:29;;;;;;;86.60;49.73;;;;;;;;;;4996355;28;20228;-74
2022/11/27 09:25:58;;;;;;;91.17;49.07;;;;;;;;;;4988749;28;20188;-77
2022/11/27 09:28:24;;;;;;;89.73;49.53;;;;;;;;;;4991738;28;20187;-76
2022/11/27 09:30:54;;;;;;;87.20;49.03;;;;;;;;;;4972370;28;20191;-76
2022/11/27 09:33:20;;;;;;;93.90;52.07;;;;;;;;;;4957184;28;20176;-75
2022/11/27 09:35:46;;;;;;;91.87;49.93;;;;;;;;;;4962621;28;20192;-74
2022/11/27 09:38:12;;;;;;;92.50;49.47;;;;;;;;;;4986857;28;20207;-75
2022/11/27 09:40:42;;;;;;;87.73;48.63;;;;;;;;;;4991664;28;20196;-75
2022/11/27 09:43:10;;;;;;;86.67;50.20;;;;;;;;;;4988875;28;20195;-75
2022/11/27 09:45:43;;;;;;;85.63;49.50;;;;;;;;;;4989782;28;20630;-75
2022/11/27 09:48:11;;;;;;;82.60;48.77;;;;;;;;;;4975114;28;20518;-75
2022/11/27 09:50:41;;;;;;;85.60;48.87;;;;;;;;;;4970316;28;20215;-76
2022/11/27 09:53:22;;;;;;;92.23;49.40;;;;;;;;;;4986533;28;20603;-74
2022/11/27 09:55:49;;;;;;;82.10;48.40;;;;;;;;;;4972918;28;20644;-76
2022/11/27 09:58:18;;;;;;;90.40;50.37;;;;;;;;;;4993217;28;20543;-75
2022/11/27 10:00:45;;;;;;;89.83;50.33;;;;;;;;;;4963275;28;20184;-74
2022/11/27 10:03:14;;;;;;;86.53;50.53;;;;;;;;;;4978979;28;20184;-74
2022/11/27 10:05:56;;;;;;;86.33;51.23;;;;;;;;;;4978686;28;20676;-75
2022/11/27 10:08:45;;;;;;;87.30;49.20;;;;;;;;;;4963625;28;20342;-75
2022/11/27 10:11:24;;;;;;;85.23;50.33;;;;;;;;;;4981462;28;20195;-75
2022/11/27 10:14:13;;;;;;;85.90;48.40;;;;;;;;;;4970412;28;20826;-74
2022/11/27 10:16:50;;;;;;;83.30;48.13;;;;;;;;;;4983000;28;20198;-76
2022/11/27 10:19:42;;;;;;;84.40;49.60;;;;;;;;;;4992830;28;20220;-75
2022/11/27 10:22:08;;;;;;;80.33;47.57;;;;;;;;;;4980356;28;20223;-76
2022/11/27 10:24:55;;;;;;;82.03;48.10;;;;;;;;;;4997263;28;20589;-74
2022/11/27 10:27:24;;;;;;;77.77;46.80;;;;;;;;;;5007558;28;20217;-74
2022/11/27 10:29:54;;;;;;;80.40;48.23;;;;;;;;;;4988748;28;20208;-75
2022/11/27 10:32:30;;;;;;;80.53;47.03;;;;;;;;;;5006027;28;20265;-76
2022/11/27 10:35:09;;;;;;;83.23;46.57;;;;;;;;;;5002645;28;20281;-75
2022/11/27 10:37:43;;;;;;;75.63;46.43;;;;;;;;;;5009880;28;20186;-76
2022/11/27 10:40:12;;;;;;;73.73;46.00;;;;;;;;;;4991321;28;20214;-75
2022/11/27 10:42:54;;;;;;;77.47;47.83;;;;;;;;;;4982483;28;20187;-76
2022/11/27 10:45:36;;;;;;;81.93;48.97;;;;;;;;;;5010490;28;20179;-76
2022/11/27 10:48:02;;;;;;;79.10;48.13;;;;;;;;;;5001771;28;20221;-75
2022/11/27 10:50:28;;;;;;;82.93;48.30;;;;;;;;;;5002728;28;20183;-76
2022/11/27 10:53:09;;;;;;;83.53;49.83;;;;;;;;;;5003609;28;20262;-76
2022/11/27 10:55:53;;;;;;;79.37;47.27;;;;;;;;;;4990193;28;20560;-76
2022/11/27 10:58:25;;;;;;;72.43;45.23;;;;;;;;;;4994176;28;20195;-75
2022/11/27 11:01:06;;;;;;;77.73;47.13;;;;;;;;;;5001855;28;20254;-75
2022/11/27 11:03:32;;;;;;;77.83;46.20;;;;;;;;;;5004266;28;20628;-75
2022/11/27 11:06:01;;;;;;;75.40;46.37;;;;;;;;;;5006627;28;20191;-75
2022/11/27 11:08:28;;;;;;;68.97;45.07;;;;;;;;;;4982783;28;20210;-74
2022/11/27 11:11:00;;;;;;;72.77;44.33;;;;;;;;;;5008563;28;20250;-76
2022/11/27 11:13:29;;;;;;;73.27;45.00;;;;;;;;;;5007080;28;20552;-76
2022/11/27 11:15:57;;;;;;;67.67;44.60;;;;;;;;;;5008397;28;20648;-75
2022/11/27 11:18:31;;;;;;;72.40;44.60;;;;;;;;;;4999000;28;20186;-76
2022/11/27 11:21:01;;;;;;;74.30;46.63;;;;;;;;;;5006314;28;20186;-75
2022/11/27 11:23:35;;;;;;;76.40;46.17;;;;;;;;;;5091586;27;1288695;-77
2022/11/27 11:26:03;;;;;;;73.10;46.63;;;;;;;;;;5112866;28;20191;-76
2022/11/27 11:28:30;;;;;;;72.33;44.00;;;;;;;;;;5111384;28;20199;-77
2022/11/27 11:31:03;;;;;;;64.97;42.40;;;;;;;;;;5105627;28;20258;-77
2022/11/27 11:33:29;;;;;;;77.03;45.50;;;;;;;;;;5108114;28;20182;-76
2022/11/27 11:36:07;;;;;;;68.53;44.40;;;;;;;;;;5101985;28;20183;-75
2022/11/27 11:38:33;;;;;;;68.67;43.23;;;;;;;;;;5103619;28;20213;-75
2022/11/27 11:41:01;;;;;;;61.57;41.80;;;;;;;;;;5104312;28;20648;-75
2022/11/27 11:43:34;;;;;;;62.77;41.77;;;;;;;;;;5102815;28;20203;-75
2022/11/27 11:46:07;;;;;;;69.27;43.33;;;;;;;;;;5106017;28;20180;-75
2022/11/27 11:48:34;;;;;;;64.27;43.13;;;;;;;;;;5108459;28;20178;-75
2022/11/27 11:51:16;;;;;;;65.90;42.93;;;;;;;;;;5101368;28;20184;-75
2022/11/27 11:53:44;;;;;;;63.90;41.67;;;;;;;;;;5105744;28;20275;-75
2022/11/27 11:56:31;;;;;;;67.67;42.33;;;;;;;;;;5102637;28;20195;-75
2022/11/27 11:59:03;;;;;;;64.20;41.20;;;;;;;;;;5103592;28;20539;-75
2022/11/27 12:01:42;;;;;;;65.20;41.23;;;;;;;;;;5104414;28;20313;-75
2022/11/27 12:04:11;;;;;;;58.40;40.00;;;;;;;;;;5088055;28;20187;-75
2022/11/27 12:06:37;;;;;;;63.00;40.17;;;;;;;;;;5104120;28;20251;-75
2022/11/27 12:09:09;;;;;;;61.93;40.90;;;;;;;;;;5105316;28;20270;-76
2022/11/27 12:11:53;;;;;;;61.43;40.00;;;;;;;;;;5105772;28;20236;-75
2022/11/27 12:14:46;;;;;;;61.50;40.23;;;;;;;;;;5100798;28;20998;-76
2022/11/27 12:17:32;;;;;;;60.20;40.80;;;;;;;;;;5094398;28;20212;-75
2022/11/27 12:20:19;;;;;;;63.17;40.77;;;;;;;;;;5099060;28;20271;-75
2022/11/27 12:22:45;;;;;;;59.87;39.30;;;;;;;;;;5104080;28;20249;-75
2022/11/27 12:25:35;;;;;;;60.00;39.10;;;;;;;;;;5102534;28;20237;-75
2022/11/27 12:28:17;;;;;;;62.27;39.83;;;;;;;;;;5101612;28;20172;-76
2022/11/27 12:31:02;;;;;;;61.07;40.23;;;;;;;;;;5100508;28;20256;-77
2022/11/27 12:33:31;;;;;;;60.90;38.97;;;;;;;;;;5100010;28;20627;-75
2022/11/27 12:36:20;;;;;;;62.80;39.30;;;;;;;;;;5091474;28;20198;-75
2022/11/27 12:38:46;;;;;;;62.03;41.67;;;;;;;;;;5082963;28;20192;-75
2022/11/27 12:41:18;;;;;;;62.97;39.90;;;;;;;;;;5089390;28;20180;-75
2022/11/27 12:43:50;;;;;;;60.70;40.90;;;;;;;;;;5086199;28;20223;-76
2022/11/27 12:46:29;;;;;;;61.07;38.57;;;;;;;;;;5084756;28;20212;-75
2022/11/27 12:49:04;;;;;;;61.53;40.23;;;;;;;;;;5087351;28;20195;-75
2022/11/27 12:51:30;;;;;;;60.27;40.90;;;;;;;;;;5100509;28;20221;-75
2022/11/27 12:53:59;;;;;;;60.30;39.10;;;;;;;;;;5093241;28;20589;-76
2022/11/27 12:56:30;;;;;;;60.93;40.83;;;;;;;;;;5080597;28;20196;-75
2022/11/27 12:59:01;;;;;;;65.00;41.07;;;;;;;;;;5089226;28;20184;-76
2022/11/27 13:01:30;;;;;;;64.43;40.97;;;;;;;;;;5085745;28;20261;-76
2022/11/27 13:04:02;;;;;;;60.20;38.43;;;;;;;;;;5086558;28;20192;-76
2022/11/27 13:06:30;;;;;;;62.50;40.37;;;;;;;;;;5088498;28;20192;-76
2022/11/27 13:08:58;;;;;;;58.23;40.07;;;;;;;;;;5085194;28;20721;-77
2022/11/27 13:11:38;;;;;;;62.93;42.07;;;;;;;;;;5085340;28;20188;-76
2022/11/27 13:14:21;;;;;;;62.00;40.53;;;;;;;;;;5087172;28;20663;-76
2022/11/27 13:16:49;;;;;;;61.23;39.57;;;;;;;;;;5089019;28;20217;-76
2022/11/27 13:19:28;;;;;;;57.37;39.40;;;;;;;;;;5086737;28;20528;-77
2022/11/27 13:21:55;;;;;;;63.00;39.50;;;;;;;;;;5085920;28;20263;-75
2022/11/27 13:24:22;;;;;;;68.43;42.97;;;;;;;;;;5087520;28;20629;-75
2022/11/27 13:26:48;;;;;;;60.73;39.40;;;;;;;;;;5085490;28;20679;-77
2022/11/27 13:29:21;;;;;;;63.67;39.50;;;;;;;;;;5087968;28;20176;-76
2022/11/27 13:31:50;;;;;;;62.30;42.07;;;;;;;;;;5084598;28;20211;-76
2022/11/27 13:34:18;;;;;;;60.80;39.37;;;;;;;;;;5089922;28;20298;-75
2022/11/27 13:36:45;;;;;;;58.37;38.13;;;;;;;;;;5085852;28;20605;-77
2022/11/27 13:39:41;;;;;;;58.57;39.33;;;;;;;;;;5077438;28;20203;-77
2022/11/27 13:42:16;;;;;;;62.07;40.93;;;;;;;;;;5066289;28;20337;-77
2022/11/27 13:44:43;;;;;;;59.70;41.83;;;;;;;;;;5087070;28;20184;-76
2022/11/27 13:47:18;;;;;;;59.87;40.40;;;;;;;;;;5083746;28;20187;-78
2022/11/27 13:49:46;;;;;;;63.83;39.33;;;;;;;;;;5088082;28;20176;-78
2022/11/27 13:52:17;;;;;;;61.47;40.67;;;;;;;;;;5087722;28;20188;-76
2022/11/27 13:54:52;;;;;;;67.37;42.63;;;;;;;;;;5087910;28;20176;-77
2022/11/27 13:57:20;;;;;;;68.77;48.77;;;;;;;;;;5088104;28;20207;-76
2022/11/27 13:59:55;;;;;;;113.03;81.60;;;;;;;;;;5086918;28;20273;-76
2022/11/27 14:02:21;;;;;;;92.13;65.27;;;;;;;;;;5086907;28;20664;-76
2022/11/27 14:04:48;;;;;;;76.13;54.80;;;;;;;;;;5087340;28;20637;-78
2022/11/27 14:07:15;;;;;;;72.87;45.73;;;;;;;;;;5086509;28;20192;-77
2022/11/27 14:09:45;;;;;;;60.43;43.03;;;;;;;;;;5089412;28;20175;-76
2022/11/27 14:12:20;;;;;;;64.40;42.43;;;;;;;;;;5087089;28;20671;-77
2022/11/27 14:14:59;;;;;;;71.30;42.60;;;;;;;;;;5086800;28;20196;-76
2022/11/27 14:17:54;;;;;;;64.80;40.87;;;;;;;;;;5086533;28;20209;-76
2022/11/27 14:20:26;;;;;;;63.67;42.37;;;;;;;;;;5069572;28;20222;-77
2022/11/27 14:22:53;;;;;;;61.53;40.93;;;;;;;;;;5085597;28;20337;-77
2022/11/27 14:25:25;;;;;;;68.87;43.00;;;;;;;;;;5086561;28;20181;-76